Time;durP1;ratioP1;P1;durP2;ratioP2;P2;SDS_P1;SDS_P2;PMS_P1;PMS_P2;Temp;Humidity;BMP_temperature;BMP_pressure;BME280_temperature;BME280_humidity;BME280_pressure;Samples;Min_cycle;Max_cycle;Signal;HPM_P1;HPM_P2
2022/03/24 00:02:25;;;;;;;19.08;13.35;;;;;;;9.37;40.85;97717.09;4865621;29;20050;-81
2022/03/24 00:04:53;;;;;;;20.25;13.55;;;;;;;9.40;40.27;97711.59;4864453;29;20056;-81
2022/03/24 00:07:21;;;;;;;16.92;12.90;;;;;;;9.42;41.38;97714.03;4864860;29;20041;-80
2022/03/24 00:09:48;;;;;;;18.95;13.70;;;;;;;9.33;39.72;97707.94;4865391;29;20042;-79
2022/03/24 00:12:16;;;;;;;17.02;12.60;;;;;;;9.12;39.87;97710.81;4865157;29;20077;-81
2022/03/24 00:14:44;;;;;;;18.77;12.93;;;;;;;9.01;41.21;97709.22;4865663;29;20117;-81
2022/03/24 00:17:13;;;;;;;19.30;14.43;;;;;;;8.96;40.83;97714.00;4865907;29;20054;-81
2022/03/24 00:19:40;;;;;;;19.70;14.13;;;;;;;8.93;40.45;97709.09;4866336;29;20062;-81
2022/03/24 00:22:08;;;;;;;18.80;13.20;;;;;;;8.89;40.81;97707.75;4865363;29;20338;-81
2022/03/24 00:24:37;;;;;;;16.65;12.82;;;;;;;8.88;42.00;97716.53;4864834;29;20101;-81
2022/03/24 00:27:05;;;;;;;17.02;12.32;;;;;;;8.79;40.47;97706.97;4863735;29;20057;-80
2022/03/24 00:29:33;;;;;;;16.85;12.18;;;;;;;8.65;40.10;97700.44;4865047;29;20058;-81
2022/03/24 00:32:00;;;;;;;15.93;12.70;;;;;;;8.55;40.29;97700.50;4864365;29;20049;-81
2022/03/24 00:34:29;;;;;;;21.42;11.93;;;;;;;8.51;42.56;97696.53;4863402;29;20050;-81
2022/03/24 00:36:57;;;;;;;18.10;12.13;;;;;;;8.51;40.75;97698.31;4863612;29;20038;-80
2022/03/24 00:39:26;;;;;;;17.65;12.52;;;;;;;8.54;42.79;97687.63;4867411;24;20058;-92
2022/03/24 00:42:02;;;;;;;16.55;11.13;;;;;;;8.64;42.58;97693.63;4844528;29;20117;-89
2022/03/24 00:44:42;;;;;;;18.58;11.63;;;;;;;8.60;40.86;97685.28;4843713;29;20535;-88
2022/03/24 00:47:17;;;;;;;18.85;11.27;;;;;;;8.48;40.24;97683.78;4843174;29;20410;-91
2022/03/24 00:50:01;;;;;;;16.08;11.75;;;;;;;8.39;42.49;97680.22;4858318;24;20114;-88
2022/03/24 00:52:51;;;;;;;15.85;11.60;;;;;;;8.35;41.00;97686.69;4843644;29;20466;-90
2022/03/24 00:55:30;;;;;;;20.38;12.40;;;;;;;8.37;43.50;97676.94;4843183;29;20061;-89
2022/03/24 00:58:10;;;;;;;17.65;13.52;;;;;;;8.40;41.27;97679.31;4842394;29;20053;-89
2022/03/24 01:00:42;;;;;;;17.42;12.57;;;;;;;8.41;42.71;97680.13;4843539;29;20050;-88
2022/03/24 01:03:17;;;;;;;17.15;12.65;;;;;;;8.40;43.14;97676.72;4843800;29;20058;-83
2022/03/24 01:05:53;;;;;;;17.52;13.38;;;;;;;8.41;44.83;97682.72;4842946;29;20086;-86
2022/03/24 01:08:33;;;;;;;19.80;14.05;;;;;;;8.45;42.81;97674.50;4849810;24;20050;-89
2022/03/24 01:11:15;;;;;;;21.17;14.68;;;;;;;8.50;42.69;97681.06;4842464;29;20050;-90
2022/03/24 01:13:52;;;;;;;22.38;14.10;;;;;;;8.42;42.20;97674.78;4843094;29;20050;-88
2022/03/24 01:16:32;;;;;;;19.42;13.45;;;;;;;8.40;43.05;97679.31;4843075;29;20497;-82
2022/03/24 01:19:14;;;;;;;18.88;14.07;;;;;;;8.45;44.53;97678.88;4843270;29;20753;-87
2022/03/24 01:21:50;;;;;;;18.92;14.02;;;;;;;8.47;44.28;97671.78;4842693;29;20057;-86
2022/03/24 01:24:22;;;;;;;21.35;13.95;;;;;;;8.47;44.01;97671.78;4844996;29;20053;-88
2022/03/24 01:26:59;;;;;;;20.42;14.75;;;;;;;8.48;43.17;97667.38;4845155;29;20045;-88
2022/03/24 01:32:36;;;;;;;19.15;14.43;;;;;;;8.41;44.62;97667.94;4845358;29;20138;-87
2022/03/24 01:35:11;;;;;;;22.00;14.63;;;;;;;8.41;43.39;97667.13;4845166;29;20095;-82
2022/03/24 01:40:51;;;;;;;22.38;15.95;;;;;;;8.07;42.97;97665.00;4844985;29;20417;-88
2022/03/24 01:46:15;;;;;;;21.00;15.57;;;;;;;8.07;44.60;97670.19;4845463;29;20140;-90
2022/03/24 01:48:47;;;;;;;21.45;15.32;;;;;;;8.18;43.58;97674.44;4856376;24;20046;-84
2022/03/24 01:51:22;;;;;;;20.55;15.07;;;;;;;8.28;43.36;97669.19;4848623;29;20053;-88
2022/03/24 01:54:14;;;;;;;24.75;17.10;;;;;;;8.32;44.32;97668.75;4849536;29;20056;-86
2022/03/24 01:57:04;;;;;;;23.50;15.68;;;;;;;8.25;43.41;97667.69;4847570;29;20054;-88
2022/03/24 01:59:42;;;;;;;22.23;15.75;;;;;;;8.14;42.94;97665.25;4848035;29;20065;-81
2022/03/24 02:02:21;;;;;;;26.67;17.60;;;;;;;8.06;42.79;97668.53;4847452;29;20140;-90
2022/03/24 02:04:58;;;;;;;22.92;15.38;;;;;;;8.01;42.86;97670.75;4846426;29;20062;-84
2022/03/24 02:12:53;;;;;;;25.17;15.15;;;;;;;7.66;45.94;97669.56;4844376;29;20512;-81
2022/03/24 02:15:27;;;;;;;24.70;15.48;;;;;;;7.67;44.67;97660.78;4845770;29;20077;-89
2022/03/24 02:17:58;;;;;;;23.27;16.52;;;;;;;7.74;46.33;97658.47;4845294;29;20057;-89
2022/03/24 02:20:36;;;;;;;20.17;14.65;;;;;;;7.75;43.57;97654.91;4846417;29;20064;-82
2022/03/24 02:23:15;;;;;;;20.50;14.68;;;;;;;7.63;43.47;97654.22;4846264;29;20065;-87
2022/03/24 02:25:52;;;;;;;20.35;14.60;;;;;;;7.59;44.12;97647.69;4845013;29;20050;-87
2022/03/24 02:31:20;;;;;;;20.30;14.30;;;;;;;7.40;44.15;97644.13;4845694;29;20143;-84
2022/03/24 02:34:37;;;;;;;19.83;13.65;;;;;;;7.43;43.75;97641.28;4846210;29;20886;-87
2022/03/24 02:36:45;;;;;;;20.73;14.82;;;;;;;7.45;43.57;97638.50;4846181;29;20072;-81
2022/03/24 02:39:16;;;;;;;17.58;13.35;;;;;;;7.39;43.48;97633.88;4846626;29;20069;-88
2022/03/24 02:41:51;;;;;;;18.13;12.45;;;;;;;7.33;44.09;97629.25;4846263;29;20061;-84
2022/03/24 02:44:37;;;;;;;22.15;14.35;;;;;;;7.32;45.21;97628.41;4846192;29;20053;-89
2022/03/24 02:47:16;;;;;;;21.08;14.20;;;;;;;7.32;44.18;97631.00;4846274;29;20073;-87
2022/03/24 02:52:48;;;;;;;19.13;14.38;;;;;;;7.24;45.32;97625.69;4846950;29;20054;-90
2022/03/24 02:55:24;;;;;;;18.98;13.38;;;;;;;7.31;44.17;97621.56;4863587;29;20075;-92
2022/03/24 03:00:35;;;;;;;19.27;14.43;;;;;;;7.33;44.41;97624.03;4811515;29;20510;-90
2022/03/24 03:03:16;;;;;;;22.05;14.63;;;;;;;7.35;44.30;97617.75;4811645;29;20081;-90
2022/03/24 03:05:49;;;;;;;20.67;13.85;;;;;;;7.37;44.50;97615.84;4811391;29;20070;-90
2022/03/24 03:14:03;;;;;;;18.30;13.43;;;;;;;7.35;44.42;97622.94;4809899;29;20051;-91
2022/03/24 03:16:47;;;;;;;19.13;14.38;;;;;;;7.35;45.68;97617.75;4810101;29;20119;-89
2022/03/24 03:19:30;;;;;;;25.33;16.73;;;;;;;7.33;44.66;97613.66;4810359;29;20078;-89
2022/03/24 03:22:11;;;;;;;33.83;19.58;;;;;;;7.20;43.74;97612.16;4810025;29;20066;-89
2022/03/24 03:24:44;;;;;;;31.67;18.65;;;;;;;7.05;44.74;97617.88;4810092;29;20080;-89
2022/03/24 03:27:20;;;;;;;21.33;15.55;;;;;;;7.08;46.16;97617.59;4810472;29;20065;-87
2022/03/24 03:30:00;;;;;;;25.85;15.35;;;;;;;7.17;45.20;97621.97;4809287;29;20069;-88
2022/03/24 03:32:39;;;;;;;20.30;13.13;;;;;;;7.24;44.44;97625.69;4810316;29;20065;-87
2022/03/24 03:35:26;;;;;;;20.42;14.18;;;;;;;7.30;46.27;97619.09;4809338;29;20059;-86
2022/03/24 03:38:24;;;;;;;20.37;13.93;;;;;;;7.37;45.76;97631.41;4812162;29;20050;-91
2022/03/24 03:41:02;;;;;;;23.20;13.68;;;;;;;7.41;45.28;97627.59;4815436;29;20067;-89
2022/03/24 03:43:43;;;;;;;21.70;13.73;;;;;;;7.43;45.37;97630.88;4817089;29;20113;-90
2022/03/24 03:46:23;;;;;;;17.25;12.95;;;;;;;7.48;44.92;97640.00;4810149;29;20055;-90
2022/03/24 03:49:02;;;;;;;21.30;14.85;;;;;;;7.46;45.61;97639.34;4848043;24;20096;-89
2022/03/24 03:51:45;;;;;;;17.95;13.82;;;;;;;7.40;45.52;97641.53;4847351;29;20049;-90
2022/03/24 03:54:31;;;;;;;20.75;14.02;;;;;;;7.30;45.42;97638.09;4851453;29;20054;-90
2022/03/24 03:57:09;;;;;;;19.38;13.93;;;;;;;7.32;45.45;97638.78;4848072;29;20054;-90
2022/03/24 03:59:44;;;;;;;18.58;13.75;;;;;;;7.36;45.55;97639.34;4858893;29;20034;-92
2022/03/24 04:02:12;;;;;;;21.23;14.38;;;;;;;7.39;45.11;97647.69;4887945;24;20060;-80
2022/03/24 04:04:41;;;;;;;22.55;14.55;;;;;;;7.41;45.04;97652.72;4844233;29;20065;-80
2022/03/24 04:07:09;;;;;;;22.42;15.65;;;;;;;7.41;45.07;97650.97;4843924;29;20064;-80
2022/03/24 04:09:37;;;;;;;18.25;14.82;;;;;;;7.39;45.17;97652.88;4843834;29;20104;-81
2022/03/24 04:12:07;;;;;;;23.40;15.82;;;;;;;7.28;44.72;97655.59;4844339;29;20402;-81
2022/03/24 04:14:35;;;;;;;22.45;15.50;;;;;;;7.08;44.41;97657.31;4844409;29;20082;-81
2022/03/24 04:17:05;;;;;;;22.92;16.30;;;;;;;6.87;44.67;97654.84;4844270;29;20058;-80
2022/03/24 04:19:33;;;;;;;20.58;14.98;;;;;;;6.68;44.39;97655.59;4844315;29;20056;-81
2022/03/24 04:22:01;;;;;;;22.77;15.82;;;;;;;6.44;44.88;97655.91;4844030;29;20081;-80
2022/03/24 04:24:29;;;;;;;21.67;14.30;;;;;;;6.21;45.39;97657.00;4844547;29;20144;-80
2022/03/24 04:26:57;;;;;;;22.48;14.98;;;;;;;6.00;45.86;97650.06;4844531;29;20476;-81
2022/03/24 04:29:25;;;;;;;23.25;15.60;;;;;;;5.80;45.94;97656.88;4844398;29;20493;-81
2022/03/24 04:31:55;;;;;;;30.20;16.17;;;;;;;5.62;46.58;97661.78;4844035;29;20141;-81
2022/03/24 04:34:24;;;;;;;24.70;15.38;;;;;;;5.44;47.46;97653.72;4843584;29;20576;-81
2022/03/24 04:36:52;;;;;;;24.15;15.48;;;;;;;5.28;47.32;97651.53;4843662;29;20432;-80
2022/03/24 04:39:20;;;;;;;23.40;15.02;;;;;;;5.21;47.52;97642.63;4844240;29;20144;-80
2022/03/24 04:41:48;;;;;;;25.85;15.13;;;;;;;5.30;48.47;97654.00;4843755;29;20060;-81
2022/03/24 04:44:16;;;;;;;23.33;14.38;;;;;;;5.42;48.10;97654.78;4843972;29;20141;-80
2022/03/24 04:46:44;;;;;;;21.95;14.35;;;;;;;5.53;48.75;97652.16;4843383;29;20064;-80
2022/03/24 04:49:13;;;;;;;22.00;15.20;;;;;;;5.63;47.64;97653.06;4843551;29;20062;-80
2022/03/24 04:51:42;;;;;;;22.05;13.50;;;;;;;5.62;47.19;97650.59;4843267;29;20505;-81
2022/03/24 04:54:10;;;;;;;24.23;15.23;;;;;;;5.53;46.98;97652.16;4844293;29;20060;-80
2022/03/24 04:56:38;;;;;;;20.35;13.05;;;;;;;5.43;47.29;97644.31;4844149;29;20140;-80
2022/03/24 04:59:07;;;;;;;19.30;12.80;;;;;;;5.36;47.42;97651.75;4844327;29;20054;-81
2022/03/24 05:01:34;;;;;;;18.45;12.07;;;;;;;5.40;47.83;97641.16;4844035;29;20531;-80
2022/03/24 05:04:04;;;;;;;21.40;13.35;;;;;;;5.46;47.32;97641.47;4844377;29;20054;-80
2022/03/24 05:06:33;;;;;;;19.30;13.10;;;;;;;5.47;47.26;97647.50;4844039;29;20519;-80
2022/03/24 05:09:02;;;;;;;18.92;13.23;;;;;;;5.47;47.44;97653.47;4844064;29;20065;-80
2022/03/24 05:11:30;;;;;;;18.02;12.75;;;;;;;5.47;47.65;97647.50;4844012;29;20054;-81
2022/03/24 05:13:58;;;;;;;21.17;12.98;;;;;;;5.47;47.60;97643.13;4844070;29;20049;-80
2022/03/24 05:16:26;;;;;;;19.15;13.30;;;;;;;5.49;47.32;97645.59;4843535;29;20049;-80
2022/03/24 05:18:54;;;;;;;19.05;13.38;;;;;;;5.48;47.34;97642.19;4843588;29;20056;-81
2022/03/24 05:21:23;;;;;;;20.80;14.13;;;;;;;5.49;47.72;97651.59;4849879;29;20110;-80
2022/03/24 05:23:51;;;;;;;21.23;14.05;;;;;;;5.49;47.69;97646.41;4861500;29;20065;-81
2022/03/24 05:26:23;;;;;;;21.80;13.07;;;;;;;5.49;47.52;97651.59;4858615;29;20050;-80
2022/03/24 05:28:51;;;;;;;19.60;12.23;;;;;;;5.53;47.47;97657.31;4844429;29;20508;-80
2022/03/24 05:31:20;;;;;;;25.15;13.65;;;;;;;5.53;47.86;97646.97;4850302;29;20100;-80
2022/03/24 05:33:48;;;;;;;20.75;13.60;;;;;;;5.50;47.58;97657.59;4865778;29;20050;-81
2022/03/24 05:36:16;;;;;;;26.60;14.52;;;;;;;5.51;47.86;97661.81;4865577;29;20068;-80
2022/03/24 05:38:44;;;;;;;23.00;13.25;;;;;;;5.50;47.81;97663.56;4852652;29;20532;-80
2022/03/24 05:41:12;;;;;;;23.60;15.38;;;;;;;5.46;48.06;97664.75;4844288;29;20064;-80
2022/03/24 05:44:02;;;;;;;22.98;15.18;;;;;;;5.46;48.31;97671.72;4843964;29;20085;-80
2022/03/24 05:46:39;;;;;;;27.08;14.52;;;;;;;5.46;48.13;97674.31;4844757;29;20057;-80
2022/03/24 05:49:08;;;;;;;24.63;14.90;;;;;;;5.40;48.24;97674.78;4843684;29;20060;-80
2022/03/24 05:51:36;;;;;;;24.23;14.55;;;;;;;5.42;48.95;97672.91;4843919;29;20057;-80
2022/03/24 05:54:04;;;;;;;24.77;15.43;;;;;;;5.45;48.27;97683.03;4843411;29;20056;-80
2022/03/24 05:56:32;;;;;;;20.77;13.88;;;;;;;5.44;47.99;97677.00;4843258;29;20057;-80
2022/03/24 05:59:02;;;;;;;25.13;15.30;;;;;;;5.43;48.35;97682.31;4843623;29;20060;-80
2022/03/24 06:01:30;;;;;;;24.65;14.48;;;;;;;5.52;50.06;97689.34;4843578;29;20049;-80
2022/03/24 06:04:00;;;;;;;21.48;15.02;;;;;;;5.69;50.15;97688.81;4843257;29;20458;-80
2022/03/24 06:06:28;;;;;;;35.70;16.65;;;;;;;5.84;49.14;97691.06;4843472;29;20164;-80
2022/03/24 06:08:57;;;;;;;26.80;15.80;;;;;;;6.00;49.90;97686.34;4843618;29;20058;-80
2022/03/24 06:11:25;;;;;;;26.20;15.25;;;;;;;6.10;48.29;97692.41;4843534;29;20061;-80
2022/03/24 06:13:53;;;;;;;28.30;15.82;;;;;;;6.08;47.62;97685.69;4843146;29;20129;-81
2022/03/24 06:16:23;;;;;;;32.10;17.77;;;;;;;6.04;48.12;97689.50;4843181;29;20141;-80
2022/03/24 06:18:51;;;;;;;27.48;15.50;;;;;;;6.09;49.67;97693.34;4843225;29;20061;-80
2022/03/24 06:21:19;;;;;;;30.25;16.13;;;;;;;6.22;49.08;97694.94;4843490;29;20046;-80
2022/03/24 06:23:47;;;;;;;25.90;16.70;;;;;;;6.31;48.90;97694.16;4843302;29;20053;-80
2022/03/24 06:26:14;;;;;;;27.83;16.55;;;;;;;6.38;47.77;97698.72;4843867;29;20526;-80
2022/03/24 06:28:43;;;;;;;23.15;15.32;;;;;;;6.44;47.56;97697.38;4853812;29;20053;-80
2022/03/24 06:31:11;;;;;;;24.75;14.90;;;;;;;6.44;47.28;97697.38;4859024;29;20060;-80
2022/03/24 06:33:41;;;;;;;24.10;17.08;;;;;;;6.45;47.11;97701.63;4862799;29;20050;-80
2022/03/24 06:36:09;;;;;;;30.10;17.00;;;;;;;6.49;46.82;97699.56;4859203;29;20125;-80
2022/03/24 06:38:38;;;;;;;28.65;15.90;;;;;;;6.53;47.00;97699.19;4848174;29;20058;-80
2022/03/24 06:41:06;;;;;;;23.33;14.88;;;;;;;6.59;47.17;97698.66;4846973;29;20062;-80
2022/03/24 06:43:35;;;;;;;23.80;15.90;;;;;;;6.67;46.60;97700.63;4847272;29;20056;-81
2022/03/24 06:46:06;;;;;;;26.48;16.42;;;;;;;6.78;46.24;97702.31;4846649;29;20058;-80
2022/03/24 06:48:34;;;;;;;31.55;17.92;;;;;;;6.82;46.25;97703.66;4846576;29;20533;-80
2022/03/24 06:51:04;;;;;;;29.40;18.77;;;;;;;6.82;45.75;97703.66;4846176;29;20054;-81
2022/03/24 06:53:32;;;;;;;28.77;17.05;;;;;;;6.86;47.88;97697.25;4846343;29;20501;-81
2022/03/24 06:56:01;;;;;;;29.20;17.58;;;;;;;7.03;47.56;97703.59;4845918;29;20056;-80
2022/03/24 06:58:28;;;;;;;25.58;16.70;;;;;;;7.20;48.08;97702.16;4845769;29;20056;-81
2022/03/24 07:00:56;;;;;;;25.63;17.90;;;;;;;7.37;47.91;97698.91;4845380;29;20058;-81
2022/03/24 07:03:25;;;;;;;30.00;18.88;;;;;;;7.56;47.69;97692.91;4845600;29;20062;-80
2022/03/24 07:05:53;;;;;;;31.92;19.75;;;;;;;7.76;48.02;97698.09;4845946;29;20496;-81
2022/03/24 07:08:25;;;;;;;30.88;20.00;;;;;;;7.97;47.64;97696.19;4846143;29;20049;-80
2022/03/24 07:10:53;;;;;;;28.80;19.03;;;;;;;8.17;48.22;97704.78;4845695;29;20062;-80
2022/03/24 07:13:22;;;;;;;32.17;18.55;;;;;;;8.39;48.13;97701.03;4845379;29;20305;-80
2022/03/24 07:15:50;;;;;;;26.25;17.30;;;;;;;8.59;46.83;97701.84;4845227;29;20174;-80
2022/03/24 07:18:19;;;;;;;29.85;17.05;;;;;;;8.78;47.06;97708.75;4845188;29;20474;-81
2022/03/24 07:20:47;;;;;;;29.98;17.80;;;;;;;8.98;47.02;97704.28;4845028;29;20072;-81
2022/03/24 07:23:16;;;;;;;27.90;17.88;;;;;;;9.18;47.05;97704.19;4844657;29;20536;-80
2022/03/24 07:25:47;;;;;;;29.52;17.23;;;;;;;9.38;46.68;97703.13;4844816;29;20425;-80
2022/03/24 07:28:16;;;;;;;36.53;18.50;;;;;;;9.59;47.18;97704.59;4845025;29;20058;-81
2022/03/24 07:30:50;;;;;;;29.30;17.75;;;;;;;9.78;46.02;97701.84;4845048;29;20085;-81
2022/03/24 07:33:21;;;;;;;29.33;17.05;;;;;;;9.98;45.82;97696.50;4844530;29;20142;-81
2022/03/24 07:35:51;;;;;;;22.55;16.00;;;;;;;10.18;46.40;97700.53;4844463;29;20054;-81
2022/03/24 07:38:24;;;;;;;27.30;16.13;;;;;;;10.36;44.60;97702.31;4844956;29;20087;-81
2022/03/24 07:40:59;;;;;;;21.50;15.35;;;;;;;10.52;43.99;97699.84;4844476;29;20054;-81
2022/03/24 07:43:32;;;;;;;24.48;17.15;;;;;;;10.70;43.78;97708.41;4843590;29;20065;-81
2022/03/24 07:46:07;;;;;;;22.40;15.25;;;;;;;10.91;42.19;97708.03;4844815;29;20058;-80
2022/03/24 07:48:46;;;;;;;25.05;16.38;;;;;;;11.08;39.63;97708.06;4844701;29;20062;-80
2022/03/24 07:51:24;;;;;;;22.63;15.27;;;;;;;11.29;41.48;97702.44;4844539;29;20061;-82
2022/03/24 08:12:38;;;;;;;25.13;17.88;;;;;;;13.30;32.73;97717.50;5106537;24;20312;-85
2022/03/24 08:15:17;;;;;;;26.30;18.27;;;;;;;13.64;34.75;97718.94;4850063;29;20054;-88
2022/03/24 08:17:57;;;;;;;26.85;16.60;;;;;;;13.99;33.47;97714.97;4848736;29;20050;-83
2022/03/24 08:20:35;;;;;;;25.88;17.40;;;;;;;14.34;31.64;97707.44;4850477;29;20483;-90
2022/03/24 08:23:25;;;;;;;24.20;17.60;;;;;;;14.69;31.86;97715.63;4832664;29;20057;-82
2022/03/24 08:26:00;;;;;;;24.08;16.95;;;;;;;15.02;31.49;97717.91;5723373;24;20024;-81
2022/03/24 08:28:29;;;;;;;23.63;17.85;;;;;;;15.34;31.09;97714.06;4828353;29;20055;-81
2022/03/24 08:34:07;;;;;;;26.10;16.42;;;;;;;16.06;29.00;97710.56;4830875;29;20058;-81
2022/03/24 08:46:32;;;;;;;26.45;17.17;;;;;;;17.38;27.44;97713.44;4970419;24;20061;-80
2022/03/24 09:00:49;;;;;;;27.10;16.42;;;;;;;18.81;26.00;97706.06;4842945;24;20060;-80
2022/03/24 09:03:23;;;;;;;26.42;16.58;;;;;;;19.09;27.93;97699.69;4884026;29;20419;-79
2022/03/24 09:05:51;;;;;;;21.33;15.77;;;;;;;19.38;26.09;97705.47;4883653;29;20100;-79
2022/03/24 09:08:18;;;;;;;22.45;16.27;;;;;;;19.64;25.65;97707.97;4883654;29;20041;-80
2022/03/24 09:10:47;;;;;;;23.10;17.15;;;;;;;19.90;24.32;97701.75;4871507;29;20042;-78
2022/03/24 09:13:15;;;;;;;23.92;16.52;;;;;;;20.12;23.77;97704.84;4866220;29;20045;-81
2022/03/24 09:15:44;;;;;;;21.08;16.17;;;;;;;20.40;23.45;97700.97;4865798;29;20144;-82
2022/03/24 09:18:13;;;;;;;24.63;16.95;;;;;;;20.73;23.09;97708.63;4865545;29;20057;-82
2022/03/24 09:20:42;;;;;;;26.95;17.10;;;;;;;21.06;22.63;97704.81;4865737;29;20104;-81
2022/03/24 09:23:11;;;;;;;26.60;16.55;;;;;;;21.30;22.38;97705.75;4866174;29;20042;-81
2022/03/24 09:25:39;;;;;;;23.42;16.25;;;;;;;21.57;22.45;97716.03;4865457;29;20064;-82
2022/03/24 09:28:07;;;;;;;20.83;15.98;;;;;;;21.90;22.74;97712.09;4865170;29;20034;-82
2022/03/24 09:30:35;;;;;;;18.40;15.50;;;;;;;22.23;22.88;97713.47;4866045;29;20113;-81
2022/03/24 09:33:04;;;;;;;20.33;16.42;;;;;;;22.53;21.56;97708.06;4866266;29;20062;-82
2022/03/24 09:35:33;;;;;;;18.35;15.45;;;;;;;22.87;21.03;97709.09;4866231;29;20066;-82
2022/03/24 09:38:02;;;;;;;22.73;15.32;;;;;;;23.22;20.57;97710.88;4866078;29;20164;-82
2022/03/24 09:40:30;;;;;;;20.17;15.38;;;;;;;23.58;20.56;97706.25;4866381;29;20042;-82
2022/03/24 09:43:00;;;;;;;17.85;13.80;;;;;;;23.97;20.68;97706.47;4866208;29;20167;-80
2022/03/24 09:45:29;;;;;;;15.63;13.70;;;;;;;24.30;20.65;97715.53;4866516;29;20037;-80
2022/03/24 09:47:57;;;;;;;17.67;14.05;;;;;;;24.57;21.03;97711.16;4866210;29;20041;-80
2022/03/24 09:50:25;;;;;;;18.73;15.68;;;;;;;24.90;19.22;97706.81;4866359;29;20059;-80
2022/03/24 09:52:56;;;;;;;16.17;14.35;;;;;;;25.23;20.01;97697.09;4866252;29;20063;-80
2022/03/24 09:55:26;;;;;;;16.77;13.10;;;;;;;25.63;17.90;97699.41;4866018;29;20042;-80
2022/03/24 09:57:54;;;;;;;19.23;13.23;;;;;;;25.97;16.74;97709.09;4865705;29;20037;-80
2022/03/24 10:00:39;;;;;;;36.65;13.93;;;;;;;26.45;16.85;97707.34;4865468;29;20062;-80
2022/03/24 10:03:09;;;;;;;22.05;13.82;;;;;;;27.00;15.92;97708.75;4865804;29;20042;-81
2022/03/24 10:05:37;;;;;;;13.80;12.32;;;;;;;27.69;15.40;97698.84;4865789;29;20041;-80
2022/03/24 10:08:06;;;;;;;19.95;12.43;;;;;;;28.44;13.97;97707.19;4868066;29;20061;-80
2022/03/24 10:10:37;;;;;;;13.02;10.20;;;;;;;29.12;13.63;97698.75;4869388;29;20038;-80
2022/03/24 10:13:05;;;;;;;13.10;11.38;;;;;;;29.84;13.28;97693.00;4869485;29;20082;-80
2022/03/24 10:15:35;;;;;;;13.95;11.00;;;;;;;30.34;11.71;97696.41;4869434;29;20038;-80
2022/03/24 10:18:03;;;;;;;15.88;11.38;;;;;;;30.54;11.69;97691.91;4869157;29;20044;-80
2022/03/24 10:20:33;;;;;;;14.48;10.32;;;;;;;30.72;11.83;97690.38;4869233;29;20110;-80
2022/03/24 10:23:02;;;;;;;14.10;10.45;;;;;;;30.93;10.97;97699.06;4869485;29;20038;-80
2022/03/24 10:25:32;;;;;;;11.75;10.13;;;;;;;31.09;10.64;97687.00;4869332;29;20037;-80
2022/03/24 10:28:07;;;;;;;11.77;10.10;;;;;;;31.14;10.41;97683.47;4869004;29;20054;-80
2022/03/24 10:30:49;;;;;;;11.77;9.45;;;;;;;31.37;11.30;97679.91;4869229;29;20101;-80
2022/03/24 10:33:31;;;;;;;11.18;9.90;;;;;;;31.83;12.69;97676.56;4869244;29;20075;-80
2022/03/24 10:36:08;;;;;;;10.98;9.95;;;;;;;32.35;11.00;97684.66;4868957;29;20046;-79
2022/03/24 10:38:37;;;;;;;10.02;9.07;;;;;;;32.84;11.60;97666.22;4869471;29;20061;-79
2022/03/24 10:41:16;;;;;;;10.77;9.77;;;;;;;33.38;10.82;97669.19;4869279;29;20045;-79
2022/03/24 10:43:45;;;;;;;11.90;9.77;;;;;;;33.94;9.85;97669.84;4869237;29;20038;-80
2022/03/24 10:46:16;;;;;;;12.77;10.45;;;;;;;34.59;9.40;97679.28;4868495;29;20042;-79
2022/03/24 10:48:46;;;;;;;12.02;10.93;;;;;;;35.30;8.92;97678.44;4868654;29;20105;-80
2022/03/24 10:51:22;;;;;;;11.75;10.20;;;;;;;36.01;8.17;97675.41;4868415;29;20038;-81
2022/03/24 10:53:50;;;;;;;11.15;9.85;;;;;;;36.67;7.84;97673.22;4861940;29;20061;-82
2022/03/24 10:56:21;;;;;;;10.90;9.82;;;;;;;37.17;7.34;97674.41;4847016;29;20074;-83
2022/03/24 10:58:56;;;;;;;11.45;10.25;;;;;;;37.73;7.13;97666.00;4845089;29;20429;-83
2022/03/24 11:01:27;;;;;;;11.05;9.82;;;;;;;38.08;7.33;97668.44;4847177;29;20058;-83
2022/03/24 11:03:56;;;;;;;11.20;10.10;;;;;;;38.41;7.41;97668.38;4848437;29;20057;-83
2022/03/24 11:06:23;;;;;;;11.90;10.75;;;;;;;38.72;6.79;97669.78;4846543;29;20133;-83
2022/03/24 11:08:56;;;;;;;13.95;11.15;;;;;;;38.99;6.83;97667.53;4846510;29;20536;-83
2022/03/24 11:11:24;;;;;;;11.48;10.32;;;;;;;39.13;6.81;97668.00;4846282;29;20057;-83
2022/03/24 11:13:55;;;;;;;9.73;8.93;;;;;;;39.04;6.38;97665.38;4845921;29;20449;-83
2022/03/24 11:16:25;;;;;;;11.32;10.23;;;;;;;39.17;6.46;97668.09;4845179;29;20061;-84
2022/03/24 11:18:56;;;;;;;11.60;10.40;;;;;;;39.20;6.14;97662.75;4844767;29;20062;-83
2022/03/24 11:21:30;;;;;;;11.23;10.13;;;;;;;39.35;6.19;97663.97;4845644;29;20061;-83
2022/03/24 11:23:58;;;;;;;10.38;9.27;;;;;;;39.65;6.93;97661.75;4845625;29;20424;-84
2022/03/24 11:26:27;;;;;;;9.88;9.02;;;;;;;39.94;6.41;97663.34;4845005;29;20046;-83
2022/03/24 11:28:57;;;;;;;10.50;9.55;;;;;;;40.01;5.57;97659.22;4844851;29;20064;-83
2022/03/24 11:31:28;;;;;;;25.27;10.52;;;;;;;39.95;5.98;97650.47;4845061;29;20061;-83
2022/03/24 11:33:58;;;;;;;13.73;9.57;;;;;;;40.06;6.37;97643.38;4844958;29;20560;-83
2022/03/24 11:36:26;;;;;;;9.90;9.00;;;;;;;40.27;5.76;97639.59;4843980;29;20058;-83
2022/03/24 11:38:56;;;;;;;9.95;8.95;;;;;;;40.26;6.19;97638.78;4844665;29;20334;-84
2022/03/24 11:41:27;;;;;;;11.05;8.70;;;;;;;40.29;5.45;97634.59;4844615;29;20058;-83
2022/03/24 11:44:04;;;;;;;10.60;8.13;;;;;;;40.20;5.37;97636.69;4844430;29;20058;-83
2022/03/24 11:46:38;;;;;;;11.50;9.07;;;;;;;40.13;4.85;97629.88;4843784;29;20053;-82
2022/03/24 11:49:15;;;;;;;9.77;8.52;;;;;;;40.02;5.49;97631.53;4845007;29;20056;-83
2022/03/24 11:51:42;;;;;;;10.68;9.68;;;;;;;39.81;5.49;97623.53;4844518;29;20057;-84
2022/03/24 11:54:10;;;;;;;10.10;9.13;;;;;;;39.36;5.46;97624.63;4845281;29;20065;-83
2022/03/24 11:56:38;;;;;;;10.32;9.10;;;;;;;38.99;5.81;97621.16;4844735;29;20046;-84
2022/03/24 11:59:23;;;;;;;9.45;8.60;;;;;;;38.69;5.64;97621.41;4845047;29;20054;-83
2022/03/24 12:02:19;;;;;;;9.32;8.52;;;;;;;38.31;6.19;97617.84;4845157;29;20412;-84
2022/03/24 12:04:48;;;;;;;10.20;7.80;;;;;;;38.16;6.43;97612.25;4845601;29;20080;-84
2022/03/24 12:07:18;;;;;;;8.55;7.85;;;;;;;37.99;6.20;97605.84;4844725;29;20050;-83
2022/03/24 12:09:58;;;;;;;9.27;8.45;;;;;;;37.63;5.62;97606.53;4844652;29;20050;-83
2022/03/24 12:12:26;;;;;;;8.82;8.02;;;;;;;37.40;5.51;97600.63;4846398;29;20065;-84
2022/03/24 12:14:55;;;;;;;9.80;7.65;;;;;;;36.69;5.64;97594.84;4845215;29;20095;-82
2022/03/24 12:17:26;;;;;;;9.05;8.02;;;;;;;35.05;6.62;97588.56;4866435;29;20038;-80
2022/03/24 12:19:54;;;;;;;8.57;7.78;;;;;;;33.31;7.30;97582.28;4867660;29;20098;-78
2022/03/24 12:22:44;;;;;;;9.13;8.05;;;;;;;31.73;8.43;97582.34;4867594;29;20070;-79
2022/03/24 12:25:24;;;;;;;10.57;9.07;;;;;;;30.49;9.47;97584.28;4867470;29;20058;-81
2022/03/24 12:28:01;;;;;;;11.20;9.80;;;;;;;29.58;10.40;97577.56;4867387;29;20057;-81
2022/03/24 12:30:43;;;;;;;11.68;10.35;;;;;;;28.72;10.45;97576.97;4866631;29;20073;-81
2022/03/24 12:33:14;;;;;;;12.60;9.13;;;;;;;28.03;11.29;97570.47;4867213;29;20094;-80
2022/03/24 12:35:45;;;;;;;10.20;9.20;;;;;;;27.43;11.28;97567.50;4867097;29;20109;-80
2022/03/24 12:38:43;;;;;;;16.75;9.68;;;;;;;26.90;11.77;97564.16;4867243;29;20045;-80
2022/03/24 12:41:22;;;;;;;9.98;8.98;;;;;;;26.51;11.86;97569.88;4852161;29;20045;-80
2022/03/24 12:43:56;;;;;;;9.85;8.82;;;;;;;26.09;11.66;97560.03;4867291;29;20068;-80
2022/03/24 12:46:29;;;;;;;11.18;8.82;;;;;;;25.74;12.44;97563.25;4866968;29;20071;-80
2022/03/24 12:49:00;;;;;;;10.43;8.38;;;;;;;25.55;12.60;97554.78;4867307;29;20038;-79
2022/03/24 12:51:29;;;;;;;9.90;8.43;;;;;;;25.40;12.70;97556.25;4867123;29;20062;-80
2022/03/24 12:53:59;;;;;;;12.10;9.18;;;;;;;25.19;12.26;97541.06;4867058;29;20060;-79
2022/03/24 12:56:29;;;;;;;11.68;8.93;;;;;;;24.90;12.65;97548.53;4867072;29;20068;-80
2022/03/24 12:59:01;;;;;;;11.02;9.88;;;;;;;24.59;12.78;97549.00;4867047;29;20045;-80
2022/03/24 13:01:31;;;;;;;12.75;8.57;;;;;;;24.35;13.04;97536.94;4866757;29;20050;-79